WetterOnline ( https://www.wetteronline.de )

Wetter aktuell Sassoferrato

Aktuelles Wetter: Frontone (574m)

6-stündlich | Neueste Meldungen
Ortszeit Temperatur Wetter
Do, 14.11. 19:00 10.0° C leicht bewölkt
Do, 14.11. 13:00 12.0° C leicht bewölkt
Do, 14.11. 7:00 8.0° C leicht bewölkt
Do, 14.11. 1:00 9.0° C wolkig
Mi, 13.11. 19:00 11.8° C leichter Regen
Mi, 13.11. 13:00 11.4° C leicht bewölkt
Mi, 13.11. 7:00 7.8° C Nebel
Mi, 13.11. 1:00 9.0° C bedeckt
Ortszeit Temperatur Wetter
Do, 14.11. 23:00 9.4° C bedeckt
Do, 14.11. 22:55 9° C leicht bewölkt
Do, 14.11. 22:00 9.8° C bedeckt
Do, 14.11. 21:55 10° C leicht bewölkt
Do, 14.11. 21:00 10.0° C bedeckt
Do, 14.11. 20:55 10° C bewölkt
Do, 14.11. 20:00 10.2° C wolkig
Do, 14.11. 19:55 10° C leicht bewölkt
Do, 14.11. 19:00 10.0° C leicht bewölkt
Ortszeit Relative Feuchte Sichtweite
Do, 14.11. 19:00 93% 15 km
Do, 14.11. 13:00 70% 30 km
Do, 14.11. 7:00 82% 10 km
Do, 14.11. 1:00 77% 10 km
Mi, 13.11. 19:00 81% 10 km
Mi, 13.11. 13:00 66% 15 km
Mi, 13.11. 7:00 97% 0.2 km
Mi, 13.11. 1:00 78% 20 km
Ortszeit Relative Feuchte Sichtweite
Do, 14.11. 23:00 94% 15 km
Do, 14.11. 22:55 100% >10 km
Do, 14.11. 22:00 90% 15 km
Do, 14.11. 21:55 87% >10 km
Do, 14.11. 21:00 90% 15 km
Do, 14.11. 20:55 87% >10 km
Do, 14.11. 20:00 86% 20 km
Do, 14.11. 19:55 87% >10 km
Do, 14.11. 19:00 93% 15 km
Ortszeit Niederschlagsmenge Niederschlagsart
Do, 14.11. 19:00 0.0 l/m2 in 12 Std. -
Do, 14.11. 13:00 0.0 l/m2 in 6 Std. -
Do, 14.11. 7:00 0.0 l/m2 in 12 Std. -
Do, 14.11. 1:00 0.0 l/m2 in 6 Std. Regen
Mi, 13.11. 19:00 3 l/m2 in 12 Std. Regen
Mi, 13.11. 13:00 0.0 l/m2 in 6 Std. -
Mi, 13.11. 7:00 2 l/m2 in 12 Std. Nebel
Mi, 13.11. 1:00 2 l/m2 in 6 Std. Regen
Ortszeit Niederschlagsmenge Niederschlagsart
Do, 14.11. 23:00 keine Meldung -
Do, 14.11. 22:55 keine Meldung -
Do, 14.11. 22:00 keine Meldung -
Do, 14.11. 21:55 keine Meldung -
Do, 14.11. 21:00 keine Meldung -
Do, 14.11. 20:55 keine Meldung -
Do, 14.11. 20:00 keine Meldung -
Do, 14.11. 19:55 keine Meldung -
Do, 14.11. 19:00 keine Meldung -
Ortszeit Stärke Spitze Richtung
km/h Bft. km/h Grad Sektor
Do, 14.11. 19:00 13 3 - 170° S
Do, 14.11. 13:00 7 2 - 150° SO
Do, 14.11. 7:00 7 2 - 230° SW
Do, 14.11. 1:00 13 3 - 180° S
Mi, 13.11. 19:00 9 2 - 100° O
Mi, 13.11. 13:00 28 4 - 210° SW
Mi, 13.11. 7:00 7 2 - 290° W
Mi, 13.11. 1:00 7 2 - 170° S
Ortszeit Stärke Spitze Richtung
km/h Bft. km/h Grad Sektor
Do, 14.11. 23:00 17 3 - 110° O
Do, 14.11. 22:55 17 3 - 110° O
Do, 14.11. 22:00 11 2 - 100° O
Do, 14.11. 21:55 11 2 - 100° O
Do, 14.11. 21:00 7 2 - 80° O
Do, 14.11. 20:55 7 2 - 80° O
Do, 14.11. 20:00 11 2 - 130° SO
Do, 14.11. 19:55 11 2 - 130° SO
Do, 14.11. 19:00 13 3 - 170° S
Ortszeit Untergrenze Bedeckung Gattung
total tief tief mittel hoch
Do, 14.11. 19:00 510 m 4/8 4/8 Cu - -
Do, 14.11. 13:00 810 m 5/8 4/8 Cu Ac -
Do, 14.11. 7:00 600 m 3/8 3/8 Cu - -
Do, 14.11. 1:00 750 m 5/8 5/8 Cu - -
Mi, 13.11. 19:00 450 m 6/8 6/8 Cu - -
Mi, 13.11. 13:00 600 m 3/8 3/8 Cu - -
Mi, 13.11. 7:00 - 8/8 - - - -
Mi, 13.11. 1:00 1020 m 8/8 8/8 Sc - -
Ortszeit Bedeckungsgrad in Achtel und Wolkenuntergrenze
Do, 14.11. 23:00 4(810m) 4(1200m)
Do, 14.11. 22:55 3-4(810m) 3-4(1200m)
Do, 14.11. 22:00 4(810m) 4(1200m)
Do, 14.11. 21:55 3-4(810m) 3-4(1200m)
Do, 14.11. 21:00 4(600m) 5(1200m)
Do, 14.11. 20:55 3-4(600m) 5-7(1200m)
Do, 14.11. 20:00 3(750m) 3(1200m)
Do, 14.11. 19:55 3-4(750m) 3-4(1200m)
Do, 14.11. 19:00 3(510m) 3(1200m)
Ortszeit Stationsdruck (hPa) Tendenz (hPa in 3 Std.)
Do, 14.11. 19:00 940 0,0
Do, 14.11. 13:00 941 + 0,6
Do, 14.11. 7:00 939 + 0,3
Do, 14.11. 1:00 938 + 0,1
Mi, 13.11. 19:00 936 + 3,0
Mi, 13.11. 13:00 931 + 1,5
Mi, 13.11. 7:00 929 0,0
Mi, 13.11. 1:00 929 - 0,2
Ortszeit Stationsdruck (hPa) Tendenz (hPa in 3 Std.)
Do, 14.11. 23:00 939 - 0,7
Do, 14.11. 22:55 - keine Meldung
Do, 14.11. 22:00 940 - 0,1
Do, 14.11. 21:55 - keine Meldung
Do, 14.11. 21:00 940 0,0
Do, 14.11. 20:55 - keine Meldung
Do, 14.11. 20:00 940 0,0
Do, 14.11. 19:55 - keine Meldung
Do, 14.11. 19:00 940 0,0
Ortszeit Schneehöhe (cm)
Do, 14.11. 19:00 -
Do, 14.11. 13:00 -
Do, 14.11. 7:00 0
Do, 14.11. 1:00 -
Mi, 13.11. 19:00 -
Mi, 13.11. 13:00 -
Mi, 13.11. 7:00 0
Mi, 13.11. 1:00 -
Ortszeit Schneehöhe (cm)
Do, 14.11. 23:00 -
Do, 14.11. 22:55 -
Do, 14.11. 22:00 -
Do, 14.11. 21:55 -
Do, 14.11. 21:00 -
Do, 14.11. 20:55 -
Do, 14.11. 20:00 -
Do, 14.11. 19:55 -
Do, 14.11. 19:00 -
Link zu dieser Seite / Seite empfehlen

Das Wetter in ...